Etusivu
METAR-TAF:

METAR-TAF

Lentoasemat :

Skellefteå, Ruotsi

Skellefteån lentoasema

Leveyspiiri: 64-38N, Pituuspiiri: 021-05E, korkeus merenpinnasta: 49 m

Tämänhetkinen sää

Tämä raportti tehtiin 42 minuuttia sitten, kello 01.20 UTC
Tuuli 3 kn kaakosta
Lämpötila -3°C
Kosteus 93%
Ilmanpaine 998 hPa
Näkyvyys: 1200 m

METAR: ESNS 250120Z AUTO 13003KT 1200 R10/P1500N R28/P1500N NCD M03/M04 Q0998

Aika: 03:02 (02:02 UTC)

Sääennuste

Tämä raportti tehtiin 8 tuntia ja 32 minuuttia sitten, kello 17.30 UTC
Ennuste voimassa 24. päivästä klo 18 UTC - 24. päivään klo 22 UTC
Tuuli 6 kn etelästä
Näkyvyys 10 km tai enemmän
Hajonneita pilviä 2000 ft:n korkeudessa
Todennäköisyys 40%
24. päivästä klo 18 UTC - 24. päivään klo 21 UTC
Hajonneita pilviä 1300 ft:n korkeudessa

TAF: ESNS 241730Z 2418/2422 19006KT 9999 BKN020 PROB40 2418/2421 BKN013

Säähavainnot ja -ennusteet yli 4000 lentoasemalta (METAR- ja TAF-raportit).

Käytössä olevat sääasemat on merkitty karttaan keltaisilla ja punaisilla pisteillä.

Aseta hiiri pisteen päälle nähdäksesi sääaseman nimen.

Klikkaa sitten nähdäksesi säähavainnot ja -ennusteet.

Kartan vaihtaminen: klikkaa mustalla rastilla varustettuja vihreitä pisteitä, niin voit zoomata sisään; viivalla varustettua vihreää pistettä, niin voit zoomata ulos tai vihreitä nuolia, niin pääset viereisille kartoille.


METAR-TAF: